createdAt,value
2018-06-28T00:00:15.577Z,1.87
2018-06-28T00:02:44.097Z,1.47
2018-06-28T00:05:12.545Z,2.08
2018-06-28T00:07:41.141Z,1.55
2018-06-28T00:10:09.617Z,1.67
2018-06-28T00:12:38.096Z,1.75
2018-06-28T00:15:06.823Z,1.87
2018-06-28T00:17:35.337Z,1.72
2018-06-28T00:20:03.945Z,1.70
2018-06-28T00:22:32.401Z,1.62
2018-06-28T00:25:00.837Z,2.00
2018-06-28T00:27:29.302Z,2.10
2018-06-28T00:29:57.904Z,1.62
2018-06-28T00:32:26.427Z,1.82
2018-06-28T00:34:54.892Z,1.60
2018-06-28T00:37:23.376Z,1.77
2018-06-28T00:39:51.799Z,1.80
2018-06-28T00:42:20.279Z,1.37
2018-06-28T00:44:48.732Z,2.05
2018-06-28T00:47:17.221Z,1.55
2018-06-28T00:49:45.677Z,1.55
2018-06-28T00:52:14.149Z,1.55
2018-06-28T00:54:42.586Z,1.90
2018-06-28T00:57:11.064Z,1.75
2018-06-28T00:59:39.552Z,1.55
2018-06-28T01:02:08.068Z,1.60
2018-06-28T01:04:36.538Z,1.37
2018-06-28T01:07:05.300Z,1.57
2018-06-28T01:09:33.848Z,1.82
2018-06-28T01:12:02.353Z,1.62
2018-06-28T01:14:30.760Z,2.10
2018-06-28T01:16:58.924Z,1.60
2018-06-28T01:19:27.429Z,1.65
2018-06-28T01:21:55.921Z,1.87
2018-06-28T01:24:24.364Z,1.47
2018-06-28T01:26:52.811Z,1.45
2018-06-28T01:29:22.127Z,1.52
2018-06-28T01:31:50.571Z,1.70
2018-06-28T01:34:19.037Z,1.87
2018-06-28T01:36:47.480Z,1.52
2018-06-28T01:39:15.928Z,1.37
2018-06-28T01:41:55.642Z,1.37
2018-06-28T01:44:24.099Z,1.70
2018-06-28T01:46:52.694Z,1.60
2018-06-28T01:49:21.177Z,1.60
2018-06-28T01:51:49.635Z,1.40
2018-06-28T01:54:18.104Z,1.40
2018-06-28T01:56:46.539Z,1.62
2018-06-28T01:59:14.966Z,1.60
2018-06-28T02:01:43.408Z,1.60
2018-06-28T02:04:11.877Z,1.25
2018-06-28T02:06:40.357Z,1.35
2018-06-28T02:09:09.981Z,1.27
2018-06-28T02:11:38.507Z,1.67
2018-06-28T02:14:07.245Z,1.27
2018-06-28T02:16:35.648Z,1.40
2018-06-28T02:19:04.108Z,1.47
2018-06-28T02:21:32.645Z,1.60
2018-06-28T02:24:01.120Z,1.30
2018-06-28T02:26:29.594Z,1.45
2018-06-28T02:28:58.068Z,1.40
2018-06-28T02:31:26.476Z,1.40
2018-06-28T02:33:54.637Z,1.32
2018-06-28T02:36:23.075Z,1.50
2018-06-28T02:38:51.553Z,1.77
2018-06-28T02:41:19.962Z,1.45
2018-06-28T02:43:48.412Z,1.57
2018-06-28T02:46:16.892Z,1.75
2018-06-28T02:48:45.361Z,1.50
2018-06-28T02:51:13.808Z,1.55
2018-06-28T02:53:42.501Z,1.57
2018-06-28T02:56:10.985Z,1.57
2018-06-28T02:58:39.493Z,1.60
2018-06-28T03:01:08.015Z,1.50
2018-06-28T03:03:36.457Z,1.70
2018-06-28T03:06:04.937Z,1.87
2018-06-28T03:08:33.401Z,1.80
2018-06-28T03:11:01.888Z,1.80
2018-06-28T03:13:30.352Z,1.60
2018-06-28T03:15:59.085Z,1.80
2018-06-28T03:18:27.554Z,1.67
2018-06-28T03:20:56.017Z,1.90
2018-06-28T03:23:24.457Z,2.22
2018-06-28T03:25:52.913Z,2.10
2018-06-28T03:28:21.339Z,2.10
2018-06-28T03:30:49.905Z,1.80
2018-06-28T03:33:18.250Z,2.22
2018-06-28T03:35:46.717Z,1.87
2018-06-28T03:38:15.147Z,1.57
2018-06-28T03:40:43.617Z,1.82
2018-06-28T03:43:12.069Z,1.92
2018-06-28T03:45:40.620Z,1.95
2018-06-28T03:48:09.057Z,2.10
2018-06-28T03:50:37.516Z,2.02
2018-06-28T03:53:06.001Z,2.00
2018-06-28T03:55:34.473Z,2.02
2018-06-28T03:58:02.889Z,1.85
2018-06-28T04:00:31.415Z,1.95
2018-06-28T04:02:59.890Z,1.87
2018-06-28T04:05:28.369Z,2.15
2018-06-28T04:07:56.849Z,1.98
2018-06-28T04:10:25.339Z,1.75
2018-06-28T04:12:53.780Z,2.00
2018-06-28T04:15:22.268Z,2.08
2018-06-28T04:17:50.701Z,1.90
2018-06-28T04:20:19.153Z,1.52
2018-06-28T04:22:47.646Z,2.08
2018-06-28T04:25:16.122Z,1.80
2018-06-28T04:27:44.532Z,1.87
2018-06-28T04:30:13.021Z,1.77
2018-06-28T04:32:41.560Z,1.90
2018-06-28T04:35:10.027Z,1.80
2018-06-28T04:37:38.500Z,1.98
2018-06-28T04:40:06.960Z,2.50
2018-06-28T04:42:35.392Z,2.70
2018-06-28T04:45:03.911Z,2.15
2018-06-28T04:47:32.345Z,2.30
2018-06-28T04:50:00.773Z,2.10
2018-06-28T04:52:29.213Z,2.02
2018-06-28T04:54:57.688Z,2.25
2018-06-28T04:57:26.129Z,2.80
2018-06-28T04:59:54.560Z,2.98
2018-06-28T05:02:23.025Z,2.52
2018-06-28T05:04:51.457Z,3.33
2018-06-28T05:07:19.958Z,3.00
2018-06-28T05:09:48.419Z,3.67
2018-06-28T05:12:16.890Z,3.42
2018-06-28T05:14:45.320Z,3.33
2018-06-28T05:17:13.788Z,3.83
2018-06-28T05:19:42.228Z,3.80
2018-06-28T05:22:10.692Z,4.05
2018-06-28T05:24:39.158Z,4.15
2018-06-28T05:27:07.624Z,4.30
2018-06-28T05:29:36.165Z,4.37
2018-06-28T05:32:04.649Z,4.40
2018-06-28T05:34:33.129Z,3.95
2018-06-28T05:37:01.601Z,3.52
2018-06-28T05:39:30.036Z,3.75
2018-06-28T05:41:58.493Z,3.87
2018-06-28T05:44:27.306Z,4.58
2018-06-28T05:46:55.814Z,4.50
2018-06-28T05:49:24.297Z,4.08
2018-06-28T05:51:52.785Z,4.08
2018-06-28T05:54:21.257Z,4.50
2018-06-28T05:56:49.824Z,4.62
2018-06-28T05:59:18.292Z,4.70
2018-06-28T06:01:46.704Z,3.92
2018-06-28T06:04:15.137Z,4.30
2018-06-28T06:06:43.601Z,4.55
2018-06-28T06:09:12.542Z,4.62
2018-06-28T06:11:40.996Z,4.92
2018-06-28T06:14:09.480Z,5.30
2018-06-28T06:16:38.006Z,4.03
2018-06-28T06:19:06.590Z,4.22
2018-06-28T06:21:35.126Z,4.47
2018-06-28T06:24:03.613Z,5.10
2018-06-28T06:26:32.066Z,4.62
2018-06-28T06:29:00.555Z,5.03
2018-06-28T06:31:29.187Z,4.50
2018-06-28T06:33:57.680Z,4.90
2018-06-28T06:36:26.188Z,4.90
2018-06-28T06:38:54.736Z,4.20
2018-06-28T06:41:23.160Z,4.17
2018-06-28T06:43:51.601Z,3.72
2018-06-28T06:46:20.153Z,5.12
2018-06-28T06:48:48.600Z,4.72
2018-06-28T06:51:17.072Z,4.08
2018-06-28T06:53:45.493Z,4.28
2018-06-28T06:56:13.978Z,4.65
2018-06-28T06:58:42.425Z,4.40
2018-06-28T07:01:10.872Z,5.17
2018-06-28T07:03:39.477Z,5.03
2018-06-28T07:06:07.897Z,4.53
2018-06-28T07:08:36.341Z,4.62
2018-06-28T07:11:04.790Z,5.17
2018-06-28T07:13:33.233Z,4.55
2018-06-28T07:16:01.964Z,4.90
2018-06-28T07:18:30.410Z,5.15
2018-06-28T07:20:58.869Z,4.95
2018-06-28T07:23:27.302Z,5.03
2018-06-28T07:25:55.743Z,5.22
2018-06-28T07:28:24.222Z,5.90
2018-06-28T07:30:52.687Z,5.17
2018-06-28T07:33:21.155Z,4.97
2018-06-28T07:35:49.580Z,4.70
2018-06-28T07:38:18.071Z,4.58
2018-06-28T07:40:46.541Z,4.90
2018-06-28T07:43:15.041Z,4.95
2018-06-28T07:45:43.631Z,4.35
2018-06-28T07:48:12.077Z,3.67
2018-06-28T07:50:40.592Z,3.40
2018-06-28T07:53:09.077Z,3.77
2018-06-28T07:55:37.536Z,3.92
2018-06-28T07:58:06.084Z,4.33
2018-06-28T08:00:34.541Z,3.95
2018-06-28T08:03:03.017Z,3.92
2018-06-28T08:05:31.489Z,4.65
2018-06-28T08:08:00.035Z,4.12
2018-06-28T08:10:28.497Z,4.92
2018-06-28T08:12:56.977Z,4.28
2018-06-28T08:15:25.426Z,5.40
2018-06-28T08:17:53.922Z,5.00
2018-06-28T08:20:22.433Z,4.60
2018-06-28T08:22:50.909Z,4.72
2018-06-28T08:25:19.361Z,4.58
2018-06-28T08:27:47.828Z,5.08
2018-06-28T08:30:16.285Z,5.35
2018-06-28T08:32:44.746Z,6.00
2018-06-28T08:35:13.241Z,6.25
2018-06-28T08:37:41.903Z,5.35
2018-06-28T08:40:10.389Z,6.15
2018-06-28T08:42:38.810Z,6.20
2018-06-28T08:45:07.269Z,6.37
2018-06-28T08:47:35.720Z,6.55
2018-06-28T08:50:03.956Z,7.10
2018-06-28T08:52:32.401Z,6.70
2018-06-28T08:55:00.848Z,8.10
2018-06-28T08:57:29.261Z,7.45
2018-06-28T08:59:57.740Z,7.75
2018-06-28T09:02:26.221Z,8.75
2018-06-28T09:04:54.750Z,7.90
2018-06-28T09:07:23.237Z,8.50
2018-06-28T09:09:51.756Z,8.33
2018-06-28T09:12:20.229Z,8.88
2018-06-28T09:14:48.742Z,9.08
2018-06-28T09:17:17.193Z,8.75
2018-06-28T09:19:45.719Z,9.23
2018-06-28T09:22:14.184Z,8.65
2018-06-28T09:24:42.644Z,9.35
2018-06-28T09:27:11.199Z,8.33
2018-06-28T09:29:39.721Z,8.58
2018-06-28T09:32:08.192Z,9.83
2018-06-28T09:34:36.676Z,9.05
2018-06-28T09:37:05.321Z,9.25
2018-06-28T09:39:33.793Z,9.08
2018-06-28T09:42:02.220Z,9.55
2018-06-28T09:44:30.712Z,10.05
2018-06-28T09:46:59.157Z,9.55
2018-06-28T09:49:27.614Z,9.83
2018-06-28T09:51:56.045Z,10.03
2018-06-28T09:54:24.529Z,10.35
2018-06-28T09:56:53.000Z,9.60
2018-06-28T09:59:21.477Z,9.90
2018-06-28T10:01:49.921Z,10.35
2018-06-28T10:04:18.368Z,9.78
2018-06-28T10:06:46.921Z,10.35
2018-06-28T10:09:15.389Z,9.13
2018-06-28T10:11:43.832Z,10.58
2018-06-28T10:14:12.345Z,10.03
2018-06-28T10:16:40.810Z,10.48
2018-06-28T10:19:09.304Z,9.93
2018-06-28T10:21:37.748Z,11.73
2018-06-28T10:24:06.259Z,10.43
2018-06-28T10:26:34.737Z,10.65
2018-06-28T10:29:03.161Z,11.15
2018-06-28T10:31:31.638Z,10.60
2018-06-28T10:34:00.081Z,10.35
2018-06-28T10:36:28.536Z,11.00
2018-06-28T10:38:56.981Z,10.38
2018-06-28T10:41:25.497Z,10.50
2018-06-28T10:43:53.906Z,10.63
2018-06-28T10:46:22.398Z,10.03
2018-06-28T10:48:50.848Z,10.75
2018-06-28T10:51:19.326Z,8.73
2018-06-28T10:53:47.806Z,8.35
2018-06-28T10:56:16.254Z,8.05
2018-06-28T10:58:44.691Z,7.95
2018-06-28T11:01:13.147Z,9.03
2018-06-28T11:03:41.582Z,8.53
2018-06-28T11:06:10.197Z,9.60
2018-06-28T11:08:38.679Z,9.95
2018-06-28T11:11:07.197Z,8.53
2018-06-28T11:13:35.617Z,9.45
2018-06-28T11:16:04.148Z,8.63
2018-06-28T11:18:32.601Z,8.40
2018-06-28T11:21:01.042Z,9.13
2018-06-28T11:23:29.456Z,9.15
2018-06-28T11:25:57.997Z,8.28
2018-06-28T11:28:26.413Z,7.45
2018-06-28T11:30:54.900Z,8.20
2018-06-28T11:33:23.346Z,7.45
2018-06-28T11:35:51.832Z,8.50
2018-06-28T11:38:20.237Z,8.80
2018-06-28T11:40:48.717Z,8.30
2018-06-28T11:43:17.162Z,9.68
2018-06-28T11:45:45.649Z,10.30
2018-06-28T11:48:14.090Z,11.43
2018-06-28T11:50:42.576Z,10.90
2018-06-28T11:53:11.016Z,11.55
2018-06-28T11:55:39.481Z,11.65
2018-06-28T11:58:07.941Z,11.75
2018-06-28T12:00:36.474Z,11.20
2018-06-28T12:03:04.960Z,11.22
2018-06-28T12:05:33.465Z,12.60
2018-06-28T12:08:01.913Z,10.90
2018-06-28T12:10:30.347Z,11.25
2018-06-28T12:12:58.900Z,11.45
2018-06-28T12:15:27.341Z,12.55
2018-06-28T12:17:55.813Z,12.53
2018-06-28T12:20:24.315Z,13.30
2018-06-28T12:22:52.774Z,12.98
2018-06-28T12:25:21.278Z,12.80
2018-06-28T12:27:49.835Z,13.53
2018-06-28T12:30:18.255Z,13.50
2018-06-28T12:32:46.775Z,13.95
2018-06-28T12:35:15.220Z,13.18
2018-06-28T12:37:43.713Z,12.78
2018-06-28T12:40:12.185Z,14.03
2018-06-28T12:42:40.680Z,13.48
2018-06-28T12:45:08.876Z,14.35
2018-06-28T12:47:56.253Z,13.93
2018-06-28T12:50:24.737Z,13.85
2018-06-28T12:52:54.891Z,14.25
2018-06-28T12:55:23.852Z,14.93
2018-06-28T12:57:53.999Z,15.18
2018-06-28T13:00:22.481Z,15.18
2018-06-28T13:02:50.972Z,15.53
2018-06-28T13:05:19.389Z,14.93
2018-06-28T13:07:47.910Z,15.88
2018-06-28T13:10:17.815Z,15.28
2018-06-28T13:12:46.486Z,15.58
2018-06-28T13:15:15.584Z,14.43
2018-06-28T13:17:44.069Z,14.87
2018-06-28T13:20:12.540Z,13.00
2018-06-28T13:22:41.499Z,14.28
2018-06-28T13:25:11.232Z,13.28
2018-06-28T13:27:39.744Z,13.58
2018-06-28T13:30:09.315Z,13.78
2018-06-28T13:32:37.798Z,13.28
2018-06-28T13:35:06.292Z,13.43
2018-06-28T13:37:34.764Z,14.78
2018-06-28T13:40:03.257Z,15.25
2018-06-28T13:42:31.757Z,15.80
2018-06-28T13:45:00.246Z,16.05
2018-06-28T13:47:28.748Z,16.10
2018-06-28T13:49:57.212Z,16.87
2018-06-28T13:52:25.669Z,16.25
2018-06-28T13:54:54.092Z,16.00
2018-06-28T13:57:22.549Z,14.15
2018-06-28T13:59:51.004Z,15.13
2018-06-28T14:02:19.485Z,14.25
2018-06-28T14:04:47.969Z,12.50
2018-06-28T14:07:16.424Z,13.32
2018-06-28T14:09:44.888Z,13.05
2018-06-28T14:12:13.338Z,12.07
2018-06-28T14:14:41.505Z,12.13
2018-06-28T14:17:09.998Z,13.50
2018-06-28T14:19:38.673Z,12.82
2018-06-28T14:22:07.208Z,12.88
2018-06-28T14:24:35.625Z,13.88
2018-06-28T14:27:04.196Z,14.10
2018-06-28T14:29:32.701Z,15.20
2018-06-28T14:32:01.164Z,14.60
2018-06-28T14:34:29.661Z,13.22
2018-06-28T14:36:58.128Z,15.53
2018-06-28T14:39:26.646Z,15.05
2018-06-28T14:41:55.064Z,14.87
2018-06-28T14:44:23.588Z,12.03
2018-06-28T14:46:52.012Z,10.88
2018-06-28T14:49:20.474Z,10.43
2018-06-28T14:51:48.923Z,11.05
2018-06-28T14:54:17.412Z,11.40
2018-06-28T14:56:46.088Z,11.90
2018-06-28T14:59:14.549Z,12.45
2018-06-28T15:02:16.969Z,11.50
2018-06-28T15:04:45.472Z,11.88
2018-06-28T15:07:13.949Z,13.15
2018-06-28T15:09:42.482Z,11.88
2018-06-28T15:12:10.929Z,11.18
2018-06-28T15:14:39.407Z,11.70
2018-06-28T15:17:08.037Z,11.15
2018-06-28T15:19:36.538Z,11.48
2018-06-28T15:22:04.977Z,8.45
2018-06-28T15:24:33.445Z,7.75
2018-06-28T15:27:01.945Z,8.30
2018-06-28T15:29:30.435Z,7.30
2018-06-28T15:31:58.872Z,8.25
2018-06-28T15:34:27.323Z,8.65
2018-06-28T15:36:55.782Z,8.98
2018-06-28T15:39:24.235Z,9.70
2018-06-28T15:41:52.700Z,9.43
2018-06-28T15:44:21.161Z,8.08
2018-06-28T15:46:49.623Z,8.80
2018-06-28T15:49:18.075Z,7.78
2018-06-28T15:51:46.524Z,8.15
2018-06-28T15:54:14.982Z,9.25
2018-06-28T15:56:43.429Z,8.78
2018-06-28T15:59:11.898Z,8.10
2018-06-28T16:01:40.350Z,6.95
2018-06-28T16:04:08.835Z,7.28
2018-06-28T16:06:37.017Z,7.90
2018-06-28T16:09:08.113Z,7.90
2018-06-28T16:11:36.624Z,6.28
2018-06-28T16:14:05.130Z,5.78
2018-06-28T16:16:33.639Z,6.67
2018-06-28T16:19:02.175Z,7.00
2018-06-28T16:21:30.737Z,10.03
2018-06-28T16:23:59.190Z,7.87
2018-06-28T16:26:27.641Z,6.25
2018-06-28T16:28:56.161Z,6.53
2018-06-28T16:31:24.644Z,6.97
2018-06-28T16:33:53.073Z,6.75
2018-06-28T16:36:21.560Z,6.08
2018-06-28T16:38:50.062Z,6.03
2018-06-28T16:41:18.552Z,7.03
2018-06-28T16:43:47.021Z,7.50
2018-06-28T16:46:15.565Z,6.72
2018-06-28T16:48:43.964Z,8.00
2018-06-28T16:51:12.432Z,7.22
2018-06-28T16:53:40.861Z,7.05
2018-06-28T16:56:09.301Z,7.55
2018-06-28T16:58:37.723Z,8.35
2018-06-28T17:01:06.229Z,7.97
2018-06-28T17:03:34.648Z,8.33
2018-06-28T17:06:03.101Z,8.73
2018-06-28T17:08:31.552Z,7.50
2018-06-28T17:11:00.057Z,7.72
2018-06-28T17:13:28.499Z,7.62
2018-06-28T17:15:57.013Z,7.72
2018-06-28T17:18:25.527Z,7.80
2018-06-28T17:20:54.013Z,7.50
2018-06-28T17:23:22.472Z,7.90
2018-06-28T17:25:50.927Z,7.08
2018-06-28T17:28:19.396Z,7.55
2018-06-28T17:30:47.853Z,7.15
2018-06-28T17:33:16.280Z,8.18
2018-06-28T17:35:44.755Z,8.45
2018-06-28T17:38:13.247Z,7.10
2018-06-28T17:40:41.713Z,7.50
2018-06-28T17:43:10.142Z,7.00
2018-06-28T17:45:38.627Z,7.08
2018-06-28T17:48:07.081Z,8.20
2018-06-28T17:50:35.533Z,7.55
2018-06-28T17:53:04.011Z,7.58
2018-06-28T17:55:32.457Z,6.25
2018-06-28T17:58:00.972Z,5.67
2018-06-28T18:00:29.384Z,5.75
2018-06-28T18:02:57.861Z,7.35
2018-06-28T18:05:26.300Z,7.10
2018-06-28T18:07:54.846Z,6.80
2018-06-28T18:10:23.292Z,7.55
2018-06-28T18:12:51.813Z,7.87
2018-06-28T18:15:20.420Z,7.75
2018-06-28T18:17:48.756Z,8.13
2018-06-28T18:20:17.292Z,7.55
2018-06-28T18:22:45.821Z,8.00
2018-06-28T18:25:14.276Z,7.67
2018-06-28T18:27:42.809Z,7.00
2018-06-28T18:30:11.342Z,7.72
2018-06-28T18:32:39.883Z,7.35
2018-06-28T18:35:08.329Z,7.47
2018-06-28T18:37:36.855Z,8.35
2018-06-28T18:40:05.604Z,7.47
2018-06-28T18:42:34.153Z,6.92
2018-06-28T18:45:02.642Z,8.83
2018-06-28T18:47:31.160Z,8.38
2018-06-28T18:49:59.612Z,8.58
2018-06-28T18:52:28.073Z,10.48
2018-06-28T18:54:56.540Z,10.18
2018-06-28T18:57:25.082Z,8.63
2018-06-28T18:59:53.533Z,8.10
2018-06-28T19:02:22.006Z,8.80
2018-06-28T19:04:50.556Z,8.05
2018-06-28T19:07:19.073Z,8.00
2018-06-28T19:09:52.821Z,8.10
2018-06-28T19:12:21.317Z,8.73
2018-06-28T19:14:55.069Z,8.88
2018-06-28T19:17:23.618Z,8.83
2018-06-28T19:19:51.736Z,9.25
2018-06-28T19:22:25.388Z,8.63
2018-06-28T19:24:53.861Z,8.15
2018-06-28T19:27:22.368Z,7.67
2018-06-28T19:29:56.238Z,8.13
2018-06-28T19:32:32.093Z,8.03
2018-06-28T19:35:01.380Z,8.33
2018-06-28T19:37:35.462Z,7.42
2018-06-28T19:40:10.050Z,8.00
2018-06-28T19:42:43.697Z,9.83
2018-06-28T19:45:12.138Z,9.70
2018-06-28T19:47:40.618Z,9.55
2018-06-28T19:50:14.301Z,8.30
2018-06-28T19:52:47.959Z,9.40
2018-06-28T19:55:16.431Z,9.73
2018-06-28T19:57:44.970Z,10.48
2018-06-28T20:00:18.722Z,10.25
2018-06-28T20:02:52.428Z,9.60
2018-06-28T20:05:20.881Z,11.22
2018-06-28T20:07:49.386Z,11.33
2018-06-28T20:10:17.860Z,10.55
2018-06-28T20:12:51.724Z,10.78
2018-06-28T20:15:35.508Z,11.97
2018-06-28T20:18:09.277Z,11.53
2018-06-28T20:20:37.769Z,11.78
2018-06-28T20:23:06.230Z,11.00
2018-06-28T20:25:34.709Z,11.20
2018-06-28T20:28:08.601Z,12.05
2018-06-28T20:30:42.512Z,10.48
2018-06-28T20:33:16.353Z,10.98
2018-06-28T20:35:44.833Z,10.32
2018-06-28T20:38:13.260Z,11.18
2018-06-28T20:40:41.727Z,11.70
2018-06-28T20:43:10.187Z,12.33
2018-06-28T20:45:38.672Z,12.20
2018-06-28T20:48:07.286Z,14.30
2018-06-28T20:50:35.804Z,12.35
2018-06-28T20:53:04.245Z,13.13
2018-06-28T20:55:32.800Z,12.63
2018-06-28T20:58:01.207Z,11.73
2018-06-28T21:00:29.694Z,11.00
2018-06-28T21:02:58.175Z,11.53
2018-06-28T21:05:26.325Z,11.55
2018-06-28T21:07:54.813Z,10.85
2018-06-28T21:10:23.461Z,10.35
2018-06-28T21:12:52.100Z,10.48
2018-06-28T21:15:21.224Z,11.08
2018-06-28T21:17:49.680Z,10.68
2018-06-28T21:20:18.155Z,10.32
2018-06-28T21:22:46.604Z,11.48
2018-06-28T21:25:15.576Z,11.05
2018-06-28T21:27:44.064Z,11.28
2018-06-28T21:30:12.532Z,11.40
2018-06-28T21:32:40.983Z,9.35
2018-06-28T21:35:09.495Z,9.80
2018-06-28T21:37:37.935Z,9.98
2018-06-28T21:40:06.476Z,9.68
2018-06-28T21:42:34.902Z,10.10
2018-06-28T21:45:03.405Z,10.25
2018-06-28T21:47:31.824Z,9.78
2018-06-28T21:50:00.274Z,9.45
2018-06-28T21:52:28.695Z,9.10
2018-06-28T21:54:57.192Z,9.68
2018-06-28T21:57:25.633Z,8.43
2018-06-28T21:59:54.113Z,9.75
2018-06-28T22:02:22.572Z,10.20
2018-06-28T22:04:51.033Z,9.65
2018-06-28T22:07:19.524Z,10.28
2018-06-28T22:09:47.966Z,10.68
2018-06-28T22:12:16.414Z,10.82
2018-06-28T22:14:45.829Z,10.40
2018-06-28T22:17:14.648Z,10.65
2018-06-28T22:19:43.169Z,10.45
2018-06-28T22:22:11.673Z,12.00
2018-06-28T22:24:40.154Z,9.70
2018-06-28T22:27:08.613Z,10.18
2018-06-28T22:29:37.060Z,11.83
2018-06-28T22:32:05.597Z,11.30
2018-06-28T22:34:34.056Z,10.45
2018-06-28T22:37:02.734Z,11.33
2018-06-28T22:39:31.180Z,11.10
2018-06-28T22:41:59.643Z,13.18
2018-06-28T22:44:28.113Z,11.75
2018-06-28T22:46:56.587Z,11.88
2018-06-28T22:49:25.035Z,12.78
2018-06-28T22:51:53.528Z,11.60
2018-06-28T22:54:21.948Z,13.72
2018-06-28T22:56:50.410Z,13.48
2018-06-28T22:59:18.872Z,12.50
2018-06-28T23:01:47.373Z,11.65
2018-06-28T23:04:15.538Z,13.03
2018-06-28T23:06:44.225Z,13.65
2018-06-28T23:09:12.648Z,13.95
2018-06-28T23:11:41.117Z,11.73
2018-06-28T23:14:09.566Z,12.07
2018-06-28T23:16:38.069Z,12.28
2018-06-28T23:19:06.561Z,12.90
2018-06-28T23:21:35.031Z,13.83
2018-06-28T23:24:03.469Z,11.88
2018-06-28T23:26:31.612Z,12.93
2018-06-28T23:29:00.041Z,12.15
2018-06-28T23:31:28.501Z,11.78
2018-06-28T23:33:57.034Z,12.15
2018-06-28T23:36:25.520Z,11.97
2018-06-28T23:38:53.965Z,13.00
2018-06-28T23:41:22.431Z,12.33
2018-06-28T23:43:50.862Z,11.73
2018-06-28T23:46:19.291Z,11.10
2018-06-28T23:48:47.749Z,11.30
2018-06-28T23:51:16.431Z,12.65
2018-06-28T23:53:44.909Z,13.18
2018-06-28T23:56:13.337Z,12.53
2018-06-28T23:58:42.291Z,12.18
